createdAt,value
2022-12-26T00:00:15.615Z,18.18
2022-12-26T00:01:15.046Z,18.13
2022-12-26T00:02:15.522Z,18.15
2022-12-26T00:03:15.041Z,18.13
2022-12-26T00:04:49.382Z,18.23
2022-12-26T00:05:14.636Z,18.27
2022-12-26T00:06:14.452Z,18.25
2022-12-26T00:07:14.316Z,18.23
2022-12-26T00:08:15.020Z,18.22
2022-12-26T00:09:15.441Z,18.18
2022-12-26T00:10:14.418Z,18.20
2022-12-26T00:11:15.109Z,18.28
2022-12-26T00:12:15.176Z,18.32
2022-12-26T00:13:38.752Z,18.30
2022-12-26T00:14:14.628Z,18.28
2022-12-26T00:15:14.895Z,18.31
2022-12-26T00:16:15.121Z,18.30
2022-12-26T00:17:14.240Z,18.27
2022-12-26T00:18:14.603Z,18.22
2022-12-26T00:19:15.108Z,18.28
2022-12-26T00:20:15.560Z,18.29
2022-12-26T00:21:14.831Z,18.26
2022-12-26T00:22:15.331Z,18.27
2022-12-26T00:23:15.110Z,18.20
2022-12-26T00:24:15.190Z,18.12
2022-12-26T00:25:15.611Z,18.22
2022-12-26T00:26:14.992Z,18.21
2022-12-26T00:27:15.112Z,18.15
2022-12-26T00:28:14.912Z,18.14
2022-12-26T00:29:15.465Z,18.11
2022-12-26T00:30:14.957Z,18.21
2022-12-26T00:31:15.373Z,18.24
2022-12-26T00:32:14.651Z,18.18
2022-12-26T00:33:14.926Z,18.19
2022-12-26T00:34:14.672Z,18.21
2022-12-26T00:35:15.668Z,18.24
2022-12-26T00:36:15.422Z,18.21
2022-12-26T00:37:14.907Z,18.24
2022-12-26T00:38:14.845Z,18.21
2022-12-26T00:39:15.085Z,18.06
2022-12-26T00:40:15.419Z,18.05
2022-12-26T00:41:14.434Z,18.07
2022-12-26T00:42:14.261Z,18.12
2022-12-26T00:43:14.199Z,18.04
2022-12-26T00:44:15.352Z,18.03
2022-12-26T00:45:14.647Z,18.04
2022-12-26T00:46:15.098Z,18.11
2022-12-26T00:47:14.704Z,18.12
2022-12-26T00:48:15.082Z,18.14
2022-12-26T00:49:15.189Z,18.22
2022-12-26T00:50:15.643Z,18.13
2022-12-26T00:51:15.465Z,18.15
2022-12-26T00:52:14.753Z,18.19
2022-12-26T00:53:14.877Z,18.11
2022-12-26T00:54:14.658Z,18.05
2022-12-26T00:55:15.226Z,18.03
2022-12-26T00:56:14.267Z,18.12
2022-12-26T00:57:14.559Z,18.18
2022-12-26T00:58:14.703Z,18.20
2022-12-26T00:59:14.677Z,18.29
2022-12-26T01:00:15.197Z,18.37
2022-12-26T01:01:16.265Z,18.38
2022-12-26T01:02:15.062Z,18.34
2022-12-26T01:03:14.312Z,18.33
2022-12-26T01:04:14.623Z,18.29
2022-12-26T01:05:14.881Z,18.31
2022-12-26T01:06:15.435Z,18.22
2022-12-26T01:07:14.670Z,18.20
2022-12-26T01:08:21.794Z,18.26
2022-12-26T01:09:14.574Z,18.32
2022-12-26T01:10:15.029Z,18.22
2022-12-26T01:11:14.526Z,18.09
2022-12-26T01:12:15.098Z,18.07
2022-12-26T01:13:14.308Z,18.09
2022-12-26T01:14:14.638Z,18.09
2022-12-26T01:15:14.925Z,18.15
2022-12-26T01:16:15.023Z,18.26
2022-12-26T01:17:15.175Z,18.33
2022-12-26T01:18:15.493Z,18.27
2022-12-26T01:19:14.975Z,18.21
2022-12-26T01:20:15.250Z,18.20
2022-12-26T01:21:15.103Z,18.20
2022-12-26T01:22:14.901Z,18.13
2022-12-26T01:23:14.912Z,18.21
2022-12-26T01:24:14.964Z,18.18
2022-12-26T01:25:14.783Z,18.11
2022-12-26T01:26:19.935Z,18.02
2022-12-26T01:27:14.346Z,18.08
2022-12-26T01:28:15.214Z,18.04
2022-12-26T01:29:14.331Z,18.07
2022-12-26T01:30:14.690Z,18.09
2022-12-26T01:31:15.343Z,18.13
2022-12-26T01:32:14.473Z,18.18
2022-12-26T01:33:14.993Z,18.13
2022-12-26T01:34:14.968Z,18.14
2022-12-26T01:35:14.914Z,18.17
2022-12-26T01:36:14.735Z,18.15
2022-12-26T01:37:14.820Z,18.22
2022-12-26T01:38:15.069Z,18.29
2022-12-26T01:39:15.220Z,18.25
2022-12-26T01:40:14.697Z,18.13
2022-12-26T01:41:14.769Z,18.17
2022-12-26T01:42:14.762Z,18.26
2022-12-26T01:43:14.446Z,18.38
2022-12-26T01:44:14.733Z,18.33
2022-12-26T01:45:14.843Z,18.30
2022-12-26T01:46:15.034Z,18.21
2022-12-26T01:47:15.070Z,18.17
2022-12-26T01:48:15.106Z,18.14
2022-12-26T01:49:15.351Z,18.13
2022-12-26T01:50:14.629Z,18.13
2022-12-26T01:51:14.561Z,18.22
2022-12-26T01:52:14.635Z,18.25
2022-12-26T01:53:15.215Z,18.18
2022-12-26T01:54:39.855Z,18.27
2022-12-26T01:55:15.388Z,18.29
2022-12-26T01:56:14.570Z,18.26
2022-12-26T01:57:14.834Z,18.35
2022-12-26T01:58:14.771Z,18.43
2022-12-26T01:59:15.101Z,18.39
2022-12-26T02:00:16.068Z,18.38
2022-12-26T02:01:14.842Z,18.37
2022-12-26T02:02:15.381Z,18.37
2022-12-26T02:03:14.850Z,18.42
2022-12-26T02:04:14.930Z,18.48
2022-12-26T02:05:14.740Z,18.42
2022-12-26T02:06:14.153Z,18.38
2022-12-26T02:07:14.846Z,18.41
2022-12-26T02:08:14.869Z,18.35
2022-12-26T02:09:14.850Z,18.30
2022-12-26T02:10:14.920Z,18.28
2022-12-26T02:11:37.786Z,18.37
2022-12-26T02:12:35.861Z,18.45
2022-12-26T02:13:14.579Z,18.50
2022-12-26T02:14:14.643Z,18.49
2022-12-26T02:15:15.530Z,18.44
2022-12-26T02:16:14.089Z,18.42
2022-12-26T02:17:14.811Z,18.45
2022-12-26T02:18:13.788Z,18.41
2022-12-26T02:19:14.297Z,18.33
2022-12-26T02:20:15.213Z,18.29
2022-12-26T02:21:14.534Z,18.26
2022-12-26T02:22:14.384Z,18.16
2022-12-26T02:23:14.730Z,18.17
2022-12-26T02:24:14.388Z,18.12
2022-12-26T02:25:15.210Z,18.14
2022-12-26T02:26:13.832Z,18.09
2022-12-26T02:27:14.304Z,18.07
2022-12-26T02:28:14.743Z,18.06
2022-12-26T02:29:14.107Z,18.04
2022-12-26T02:30:14.549Z,17.99
2022-12-26T02:31:14.122Z,18.01
2022-12-26T02:32:14.735Z,17.97
2022-12-26T02:33:14.229Z,17.98
2022-12-26T02:34:14.254Z,17.94
2022-12-26T02:35:14.901Z,17.95
2022-12-26T02:36:14.186Z,17.96
2022-12-26T02:37:15.120Z,17.98
2022-12-26T02:38:14.361Z,17.99
2022-12-26T02:39:43.609Z,17.96
2022-12-26T02:40:14.888Z,18.01
2022-12-26T02:41:14.875Z,17.96
2022-12-26T02:42:14.434Z,17.91
2022-12-26T02:43:14.196Z,17.86
2022-12-26T02:44:14.447Z,17.83
2022-12-26T02:45:15.337Z,17.76
2022-12-26T02:46:14.370Z,17.78
2022-12-26T02:47:13.954Z,17.79
2022-12-26T02:48:14.521Z,17.85
2022-12-26T02:49:13.860Z,17.89
2022-12-26T02:50:14.531Z,17.87
2022-12-26T02:51:14.502Z,17.88
2022-12-26T02:52:14.142Z,17.88
2022-12-26T02:53:14.662Z,17.87
2022-12-26T02:54:14.012Z,17.85
2022-12-26T02:55:15.147Z,17.82
2022-12-26T02:56:14.400Z,17.80
2022-12-26T02:57:14.203Z,17.80
2022-12-26T02:58:14.900Z,17.78
2022-12-26T02:59:15.054Z,17.70
2022-12-26T03:00:14.571Z,17.67
2022-12-26T03:01:14.630Z,17.73
2022-12-26T03:02:14.803Z,17.72
2022-12-26T03:03:14.937Z,17.70
2022-12-26T03:04:14.728Z,17.71
2022-12-26T03:05:14.632Z,17.71
2022-12-26T03:06:14.497Z,17.76
2022-12-26T03:07:14.368Z,17.71
2022-12-26T03:08:14.244Z,17.63
2022-12-26T03:09:14.981Z,17.69
2022-12-26T03:10:14.394Z,17.79
2022-12-26T03:11:14.941Z,17.86
2022-12-26T03:12:14.481Z,17.84
2022-12-26T03:13:14.032Z,17.87
2022-12-26T03:14:14.532Z,17.96
2022-12-26T03:15:14.644Z,17.99
2022-12-26T03:16:14.721Z,17.93
2022-12-26T03:17:14.612Z,17.93
2022-12-26T03:18:14.180Z,17.94
2022-12-26T03:19:14.583Z,18.01
2022-12-26T03:20:14.435Z,18.04
2022-12-26T03:21:14.108Z,18.06
2022-12-26T03:22:14.280Z,18.08
2022-12-26T03:23:14.142Z,18.07
2022-12-26T03:24:14.822Z,18.08
2022-12-26T03:25:14.728Z,18.04
2022-12-26T03:26:14.502Z,17.96
2022-12-26T03:27:14.482Z,17.90
2022-12-26T03:28:15.205Z,17.95
2022-12-26T03:29:18.827Z,18.04
2022-12-26T03:30:15.354Z,18.09
2022-12-26T03:31:14.432Z,18.10
2022-12-26T03:32:13.862Z,18.05
2022-12-26T03:33:14.683Z,18.07
2022-12-26T03:34:14.545Z,18.06
2022-12-26T03:35:14.013Z,18.04
2022-12-26T03:36:14.444Z,18.07
2022-12-26T03:37:15.231Z,18.05
2022-12-26T03:38:15.060Z,18.07
2022-12-26T03:39:15.137Z,18.06
2022-12-26T03:40:15.177Z,18.09
2022-12-26T03:41:14.995Z,18.13
2022-12-26T03:42:14.527Z,18.05
2022-12-26T03:43:13.860Z,18.03
2022-12-26T03:44:14.377Z,18.06
2022-12-26T03:45:15.113Z,18.03
2022-12-26T03:46:14.961Z,18.06
2022-12-26T03:47:14.840Z,18.10
2022-12-26T03:48:14.279Z,18.06
2022-12-26T03:49:14.515Z,18.07
2022-12-26T03:50:14.099Z,18.07
2022-12-26T03:51:14.725Z,18.11
2022-12-26T03:52:14.309Z,18.08
2022-12-26T03:53:14.862Z,18.14
2022-12-26T03:54:14.586Z,18.14
2022-12-26T03:55:14.366Z,18.04
2022-12-26T03:56:14.571Z,18.02
2022-12-26T03:57:14.226Z,18.04
2022-12-26T03:58:14.669Z,18.07
2022-12-26T03:59:14.603Z,18.07
2022-12-26T04:00:15.433Z,18.07
2022-12-26T04:01:14.372Z,18.10
2022-12-26T04:02:14.279Z,18.07
2022-12-26T04:03:14.312Z,18.10
2022-12-26T04:04:15.106Z,18.10
2022-12-26T04:05:14.839Z,18.14
2022-12-26T04:06:14.426Z,18.16
2022-12-26T04:07:14.787Z,18.15
2022-12-26T04:08:18.467Z,18.20
2022-12-26T04:09:15.029Z,18.21
2022-12-26T04:10:14.878Z,18.18
2022-12-26T04:11:14.582Z,18.19
2022-12-26T04:12:14.126Z,18.21
2022-12-26T04:13:14.686Z,18.25
2022-12-26T04:14:14.042Z,18.25
2022-12-26T04:15:14.800Z,18.28
2022-12-26T04:16:14.636Z,18.28
2022-12-26T04:17:14.484Z,18.25
2022-12-26T04:18:14.241Z,18.25
2022-12-26T04:19:15.157Z,18.28
2022-12-26T04:20:14.958Z,18.29
2022-12-26T04:21:14.753Z,18.28
2022-12-26T04:22:13.791Z,18.18
2022-12-26T04:23:14.251Z,18.16
2022-12-26T04:24:14.926Z,18.21
2022-12-26T04:25:14.182Z,18.22
2022-12-26T04:26:13.717Z,18.18
2022-12-26T04:27:13.943Z,18.25
2022-12-26T04:28:13.839Z,18.28
2022-12-26T04:29:14.011Z,18.30
2022-12-26T04:30:14.471Z,18.29
2022-12-26T04:31:14.737Z,18.27
2022-12-26T04:32:14.308Z,18.22
2022-12-26T04:33:14.416Z,18.25
2022-12-26T04:34:14.273Z,18.29
2022-12-26T04:35:14.800Z,18.26
2022-12-26T04:36:13.878Z,18.23
2022-12-26T04:37:14.078Z,18.18
2022-12-26T04:38:14.164Z,18.11
2022-12-26T04:39:14.539Z,18.15
2022-12-26T04:40:15.084Z,18.14
2022-12-26T04:41:14.035Z,18.06
2022-12-26T04:42:14.081Z,18.03
2022-12-26T04:43:50.052Z,18.04
2022-12-26T04:44:14.232Z,17.92
2022-12-26T04:45:14.965Z,17.82
2022-12-26T04:46:13.944Z,17.75
2022-12-26T04:47:14.629Z,17.71
2022-12-26T04:48:13.710Z,17.75
2022-12-26T04:49:13.900Z,17.89
2022-12-26T04:50:14.177Z,17.92
2022-12-26T04:51:14.720Z,17.86
2022-12-26T04:52:14.036Z,17.95
2022-12-26T04:53:14.544Z,17.87
2022-12-26T04:54:14.696Z,17.80
2022-12-26T04:55:14.437Z,17.77
2022-12-26T04:56:13.709Z,17.71
2022-12-26T04:57:14.924Z,17.61
2022-12-26T04:58:13.775Z,17.51
2022-12-26T04:59:14.033Z,17.45
2022-12-26T05:00:14.765Z,17.40
2022-12-26T05:01:14.196Z,17.45
2022-12-26T05:02:14.853Z,17.45
2022-12-26T05:03:18.664Z,17.30
2022-12-26T05:04:14.368Z,17.31
2022-12-26T05:05:15.253Z,17.30
2022-12-26T05:06:14.394Z,17.27
2022-12-26T05:07:14.069Z,17.26
2022-12-26T05:08:13.801Z,17.19
2022-12-26T05:09:14.238Z,17.18
2022-12-26T05:10:14.528Z,17.07
2022-12-26T05:11:13.853Z,17.03
2022-12-26T05:12:14.169Z,17.15
2022-12-26T05:13:14.623Z,17.25
2022-12-26T05:14:14.112Z,17.21
2022-12-26T05:15:14.854Z,17.17
2022-12-26T05:16:14.551Z,17.19
2022-12-26T05:17:14.092Z,17.26
2022-12-26T05:18:14.486Z,17.26
2022-12-26T05:19:13.849Z,17.31
2022-12-26T05:20:14.904Z,17.32
2022-12-26T05:21:14.617Z,17.37
2022-12-26T05:22:14.226Z,17.37
2022-12-26T05:23:15.029Z,17.42
2022-12-26T05:24:14.808Z,17.41
2022-12-26T05:25:14.728Z,17.44
2022-12-26T05:26:15.264Z,17.47
2022-12-26T05:27:14.728Z,17.47
2022-12-26T05:28:14.913Z,17.52
2022-12-26T05:29:14.969Z,17.56
2022-12-26T05:30:15.730Z,17.59
2022-12-26T05:31:14.571Z,17.60
2022-12-26T05:32:14.955Z,17.67
2022-12-26T05:33:14.974Z,17.67
2022-12-26T05:34:15.147Z,17.71
2022-12-26T05:35:15.311Z,17.75
2022-12-26T05:36:14.605Z,17.76
2022-12-26T05:37:14.768Z,17.76
2022-12-26T05:38:15.004Z,17.79
2022-12-26T05:39:15.349Z,17.78
2022-12-26T05:40:14.357Z,17.85
2022-12-26T05:41:14.606Z,17.82
2022-12-26T05:42:14.959Z,17.85
2022-12-26T05:43:14.493Z,17.86
2022-12-26T05:44:14.515Z,17.87
2022-12-26T05:45:15.043Z,17.86
2022-12-26T05:46:15.089Z,17.87
2022-12-26T05:47:15.308Z,17.86
2022-12-26T05:48:14.513Z,17.89
2022-12-26T05:49:14.768Z,17.90
2022-12-26T05:50:15.543Z,17.90
2022-12-26T05:51:15.007Z,17.89
2022-12-26T05:52:15.078Z,17.89
2022-12-26T05:53:14.912Z,17.89
2022-12-26T05:54:15.605Z,17.90
2022-12-26T05:55:15.115Z,17.90
2022-12-26T05:56:15.242Z,17.89
2022-12-26T05:57:14.277Z,17.89
2022-12-26T05:58:14.367Z,17.89
2022-12-26T05:59:14.559Z,17.92
2022-12-26T06:00:15.536Z,17.93
2022-12-26T06:01:15.088Z,17.91
2022-12-26T06:02:14.333Z,17.93
2022-12-26T06:03:15.502Z,17.92
2022-12-26T06:04:14.897Z,17.92
2022-12-26T06:05:15.616Z,17.93
2022-12-26T06:06:15.079Z,17.94
2022-12-26T06:07:14.491Z,17.94
2022-12-26T06:08:15.072Z,17.95
2022-12-26T06:09:15.124Z,17.95
2022-12-26T06:10:14.385Z,17.96
2022-12-26T06:11:14.808Z,17.96
2022-12-26T06:12:14.821Z,17.95
2022-12-26T06:13:15.211Z,17.96
2022-12-26T06:14:14.474Z,17.98
2022-12-26T06:15:15.039Z,17.98
2022-12-26T06:16:15.384Z,17.96
2022-12-26T06:17:15.571Z,17.96
2022-12-26T06:18:14.949Z,17.98
2022-12-26T06:19:15.336Z,17.98
2022-12-26T06:20:14.555Z,17.97
2022-12-26T06:21:15.187Z,17.97
2022-12-26T06:22:15.752Z,17.98
2022-12-26T06:23:15.397Z,17.98
2022-12-26T06:24:14.716Z,18
2022-12-26T06:25:15.087Z,17.98
2022-12-26T06:26:14.639Z,17.96
2022-12-26T06:27:15.691Z,17.97
2022-12-26T06:28:15.005Z,17.95
2022-12-26T06:29:14.802Z,17.95
2022-12-26T06:30:15.590Z,17.90
2022-12-26T06:31:15.109Z,17.89
2022-12-26T06:32:14.403Z,17.85
2022-12-26T06:33:14.329Z,17.80
2022-12-26T06:34:14.831Z,17.81
2022-12-26T06:35:15.690Z,17.81
2022-12-26T06:36:15.132Z,17.81
2022-12-26T06:37:15.730Z,17.78
2022-12-26T06:38:15.408Z,17.76
2022-12-26T06:39:15.141Z,17.71
2022-12-26T06:40:14.637Z,17.69
2022-12-26T06:41:15.006Z,17.65
2022-12-26T06:42:14.939Z,17.67
2022-12-26T06:43:15.326Z,17.68
2022-12-26T06:44:18.113Z,17.67
2022-12-26T06:45:15.199Z,17.69
2022-12-26T06:46:14.691Z,17.71
2022-12-26T06:47:14.689Z,17.69
2022-12-26T06:48:15.301Z,17.65
2022-12-26T06:49:14.661Z,17.64
2022-12-26T06:50:14.848Z,17.67
2022-12-26T06:51:15.603Z,17.70
2022-12-26T06:52:14.801Z,17.71
2022-12-26T06:53:15.319Z,17.74
2022-12-26T06:54:14.466Z,17.74
2022-12-26T06:55:14.914Z,17.75
2022-12-26T06:56:15.304Z,17.76
2022-12-26T06:57:14.480Z,17.77
2022-12-26T06:58:14.313Z,17.79
2022-12-26T06:59:14.497Z,17.78
2022-12-26T07:00:15.933Z,17.81
2022-12-26T07:01:15.359Z,17.79
2022-12-26T07:02:15.408Z,17.81
2022-12-26T07:03:15.281Z,17.83
2022-12-26T07:04:15.030Z,17.82
2022-12-26T07:05:15.778Z,17.83
2022-12-26T07:06:14.919Z,17.83
2022-12-26T07:07:15.250Z,17.83
2022-12-26T07:08:15.536Z,17.83
2022-12-26T07:09:14.634Z,17.84
2022-12-26T07:10:15.459Z,17.83
2022-12-26T07:11:14.552Z,17.83
2022-12-26T07:12:15.650Z,17.83
2022-12-26T07:13:15.322Z,17.82
2022-12-26T07:14:14.434Z,17.82
2022-12-26T07:15:15.481Z,17.81
2022-12-26T07:16:15.105Z,17.79
2022-12-26T07:17:15.540Z,17.79
2022-12-26T07:18:14.885Z,17.77
2022-12-26T07:19:15.273Z,17.77
2022-12-26T07:20:15.240Z,17.77
2022-12-26T07:21:14.237Z,17.78
2022-12-26T07:22:14.837Z,17.75
2022-12-26T07:23:15.123Z,17.73
2022-12-26T07:24:14.508Z,17.70
2022-12-26T07:25:15.285Z,17.61
2022-12-26T07:26:14.785Z,17.52
2022-12-26T07:27:15.562Z,17.40
2022-12-26T07:28:15.037Z,17.31
2022-12-26T07:29:14.430Z,17.27
2022-12-26T07:30:14.887Z,17.32
2022-12-26T07:31:15.012Z,17.35
2022-12-26T07:32:16.510Z,17.32
2022-12-26T07:33:16.967Z,17.32
2022-12-26T07:34:17.421Z,17.29
2022-12-26T07:35:15.943Z,17.16
2022-12-26T07:36:15.645Z,17.15
2022-12-26T07:37:16.303Z,17.18
2022-12-26T07:38:17.049Z,17.14
2022-12-26T07:39:16.808Z,17.17
2022-12-26T07:40:16.519Z,17.20
2022-12-26T07:41:15.527Z,17.16
2022-12-26T07:42:17.026Z,17.07
2022-12-26T07:43:16.707Z,16.98
2022-12-26T07:44:16.631Z,17
2022-12-26T07:45:16.992Z,16.99
2022-12-26T07:46:17.475Z,16.95
2022-12-26T07:47:16.148Z,16.89
2022-12-26T07:48:16.121Z,16.87
2022-12-26T07:49:15.863Z,16.93
2022-12-26T07:50:15.571Z,16.94
2022-12-26T07:51:17.482Z,16.85
2022-12-26T07:52:16.332Z,16.79
2022-12-26T07:53:17.196Z,16.79
2022-12-26T07:54:16.136Z,16.79
2022-12-26T07:55:15.958Z,16.84
2022-12-26T07:56:16.321Z,17.00
2022-12-26T07:57:46.929Z,17.11
2022-12-26T07:58:16.726Z,17.10
2022-12-26T07:59:15.685Z,17.11
2022-12-26T08:00:17.354Z,17.17
2022-12-26T08:01:17.867Z,17.16
2022-12-26T08:02:16.809Z,17.17
2022-12-26T08:03:16.931Z,17.21
2022-12-26T08:04:15.887Z,17.23
2022-12-26T08:05:15.666Z,17.22
2022-12-26T08:06:16.429Z,17.15
2022-12-26T08:07:17.053Z,17.17
2022-12-26T08:08:16.589Z,17.20
2022-12-26T08:09:15.795Z,17.27
2022-12-26T08:10:16.555Z,17.32
2022-12-26T08:11:18.299Z,17.35
2022-12-26T08:12:17.130Z,17.35
2022-12-26T08:13:15.622Z,17.39
2022-12-26T08:14:15.607Z,17.38
2022-12-26T08:15:16.351Z,17.36
2022-12-26T08:16:16.610Z,17.31
2022-12-26T08:17:17.215Z,17.26
2022-12-26T08:18:16.005Z,17.19
2022-12-26T08:19:16.473Z,17.18
2022-12-26T08:20:16.150Z,17.28
2022-12-26T08:21:17.146Z,17.31
2022-12-26T08:22:18.539Z,17.23
2022-12-26T08:23:16.687Z,17.26
2022-12-26T08:24:15.648Z,17.28
2022-12-26T08:25:20.170Z,17.34
2022-12-26T08:26:17.799Z,17.36
2022-12-26T08:27:16.933Z,17.42
2022-12-26T08:28:16.108Z,17.45
2022-12-26T08:29:15.187Z,17.43
2022-12-26T08:30:16.948Z,17.40
2022-12-26T08:31:16.548Z,17.45
2022-12-26T08:32:17.154Z,17.51
2022-12-26T08:33:15.863Z,17.53
2022-12-26T08:34:15.366Z,17.55
2022-12-26T08:35:15.349Z,17.59
2022-12-26T08:36:15.843Z,17.63
2022-12-26T08:37:15.340Z,17.61
2022-12-26T08:38:15.542Z,17.59
2022-12-26T08:39:16.422Z,17.64
2022-12-26T08:40:26.833Z,17.71
2022-12-26T08:41:15.798Z,17.69
2022-12-26T08:42:15.307Z,17.65
2022-12-26T08:43:38.717Z,17.71
2022-12-26T08:44:26.729Z,17.78
2022-12-26T08:45:15.645Z,17.84
2022-12-26T08:46:20.934Z,17.86
2022-12-26T08:47:16.109Z,17.87
2022-12-26T08:48:15.534Z,17.86
2022-12-26T08:49:16.336Z,17.83
2022-12-26T08:50:16.935Z,17.87
2022-12-26T08:51:17.253Z,17.90
2022-12-26T08:52:16.219Z,17.96
2022-12-26T08:53:15.908Z,17.99
2022-12-26T08:54:16.129Z,18.02
2022-12-26T08:55:16.827Z,18
2022-12-26T08:56:16.935Z,18.01
2022-12-26T08:57:16.511Z,18.04
2022-12-26T08:58:15.743Z,18.06
2022-12-26T08:59:16.618Z,18.12
2022-12-26T09:00:17.443Z,18.15
2022-12-26T09:01:17.147Z,18.13
2022-12-26T09:02:16.797Z,18.05
2022-12-26T09:03:15.977Z,18.03
2022-12-26T09:04:30.785Z,18.04
2022-12-26T09:05:16.955Z,18.11
2022-12-26T09:06:16.744Z,18.19
2022-12-26T09:07:16.729Z,18.22
2022-12-26T09:08:15.822Z,18.16
2022-12-26T09:09:15.591Z,18.06
2022-12-26T09:10:16.870Z,18.04
2022-12-26T09:11:16.247Z,18.10
2022-12-26T09:12:16.424Z,18.17
2022-12-26T09:13:16.020Z,18.22
2022-12-26T09:14:17.465Z,18.19
2022-12-26T09:15:17.127Z,18.18
2022-12-26T09:16:38.635Z,18.26
2022-12-26T09:17:16.857Z,18.35
2022-12-26T09:18:16.421Z,18.33
2022-12-26T09:19:15.742Z,18.23
2022-12-26T09:20:16.419Z,18.19
2022-12-26T09:21:16.655Z,18.13
2022-12-26T09:22:35.531Z,18.17
2022-12-26T09:23:16.232Z,18.24
2022-12-26T09:24:16.335Z,18.30
2022-12-26T09:25:16.588Z,18.32
2022-12-26T09:26:16.745Z,18.25
2022-12-26T09:27:17.031Z,18.15
2022-12-26T09:28:16.389Z,18.21
2022-12-26T09:29:16.753Z,18.14
2022-12-26T09:30:17.196Z,18.13
2022-12-26T09:31:17.051Z,18.15
2022-12-26T09:32:16.285Z,18.19
2022-12-26T09:33:15.508Z,18.23
2022-12-26T09:34:16.220Z,18.22
2022-12-26T09:35:17.121Z,18.17
2022-12-26T09:36:17.093Z,18.11
2022-12-26T09:37:16.992Z,18.18
2022-12-26T09:38:17.104Z,18.17
2022-12-26T09:39:15.657Z,18.15
2022-12-26T09:40:16.331Z,18.19
2022-12-26T09:41:16.343Z,18.18
2022-12-26T09:42:16.895Z,18.12
2022-12-26T09:43:15.874Z,18.22
2022-12-26T09:44:15.901Z,18.24
2022-12-26T09:45:16.400Z,18.28
2022-12-26T09:46:16.944Z,18.32
2022-12-26T09:47:16.855Z,18.26
2022-12-26T09:48:15.816Z,18.27
2022-12-26T09:49:16.130Z,18.22
2022-12-26T09:50:15.752Z,18.24
2022-12-26T09:51:15.608Z,18.29
2022-12-26T09:52:15.399Z,18.30
2022-12-26T09:53:16.113Z,18.31
2022-12-26T09:54:15.517Z,18.31
2022-12-26T09:55:16.422Z,18.36
2022-12-26T09:56:36.958Z,18.34
2022-12-26T09:57:22.056Z,18.32
2022-12-26T09:58:16.077Z,18.31
2022-12-26T09:59:15.539Z,18.30
2022-12-26T10:00:15.796Z,18.33
2022-12-26T10:01:16.606Z,18.32
2022-12-26T10:02:15.826Z,18.36
2022-12-26T10:03:16.397Z,18.39
2022-12-26T10:04:14.921Z,18.42
2022-12-26T10:05:15.919Z,18.41
2022-12-26T10:06:15.867Z,18.43
2022-12-26T10:07:16.009Z,18.44
2022-12-26T10:08:15.311Z,18.45
2022-12-26T10:09:16.019Z,18.43
2022-12-26T10:10:15.339Z,18.46
2022-12-26T10:11:14.668Z,18.50
2022-12-26T10:12:15.443Z,18.54
2022-12-26T10:13:15.292Z,18.57
2022-12-26T10:14:19.790Z,18.64
2022-12-26T10:15:15.944Z,18.71
2022-12-26T10:16:15.180Z,18.66
2022-12-26T10:17:15.458Z,18.63
2022-12-26T10:18:14.731Z,18.61
2022-12-26T10:19:15.178Z,18.61
2022-12-26T10:20:15.479Z,18.55
2022-12-26T10:21:15.097Z,18.54
2022-12-26T10:22:14.857Z,18.53
2022-12-26T10:23:15.332Z,18.45
2022-12-26T10:24:15.209Z,18.41
2022-12-26T10:25:15.205Z,18.42
2022-12-26T10:26:14.918Z,18.47
2022-12-26T10:27:14.721Z,18.47
2022-12-26T10:28:15.655Z,18.54
2022-12-26T10:29:14.635Z,18.55
2022-12-26T10:30:15.565Z,18.52
2022-12-26T10:31:15.837Z,18.53
2022-12-26T10:32:15.199Z,18.51
2022-12-26T10:33:14.664Z,18.53
2022-12-26T10:34:15.437Z,18.54
2022-12-26T10:35:15.427Z,18.54
2022-12-26T10:36:14.889Z,18.49
2022-12-26T10:37:14.590Z,18.50
2022-12-26T10:38:14.716Z,18.46
2022-12-26T10:39:15.575Z,18.50
2022-12-26T10:40:15.137Z,18.54
2022-12-26T10:41:14.546Z,18.54
2022-12-26T10:42:15.211Z,18.60
2022-12-26T10:43:15.040Z,18.57
2022-12-26T10:44:15.002Z,18.54
2022-12-26T10:45:15.710Z,18.54
2022-12-26T10:46:15.133Z,18.53
2022-12-26T10:47:15.126Z,18.54
2022-12-26T10:48:15.685Z,18.53
2022-12-26T10:49:15.482Z,18.50
2022-12-26T10:50:15.245Z,18.56
2022-12-26T10:51:15.469Z,18.54
2022-12-26T10:52:15.314Z,18.54
2022-12-26T10:53:15.348Z,18.53
2022-12-26T10:54:15.010Z,18.47
2022-12-26T10:55:29.439Z,18.46
2022-12-26T10:56:18.177Z,18.45
2022-12-26T10:57:15.217Z,18.49
2022-12-26T10:58:14.464Z,18.53
2022-12-26T10:59:14.311Z,18.55
2022-12-26T11:00:15.313Z,18.57
2022-12-26T11:01:15.599Z,18.61
2022-12-26T11:02:14.476Z,18.61
2022-12-26T11:03:15.422Z,18.66
2022-12-26T11:04:16.602Z,18.70
2022-12-26T11:05:33.385Z,18.74
2022-12-26T11:06:18.237Z,18.75
2022-12-26T11:07:14.896Z,18.70
2022-12-26T11:08:15.285Z,18.67
2022-12-26T11:09:20.051Z,18.47
2022-12-26T11:10:14.869Z,18.48
2022-12-26T11:11:15.268Z,18.54
2022-12-26T11:12:14.621Z,18.55
2022-12-26T11:13:14.856Z,18.55
2022-12-26T11:14:15.771Z,18.50
2022-12-26T11:15:15.472Z,18.47
2022-12-26T11:16:14.860Z,18.48
2022-12-26T11:17:15.187Z,18.54
2022-12-26T11:18:15.353Z,18.56
2022-12-26T11:19:22.751Z,18.59
2022-12-26T11:20:14.892Z,18.66
2022-12-26T11:21:15.436Z,18.62
2022-12-26T11:22:14.769Z,18.63
2022-12-26T11:23:14.911Z,18.57
2022-12-26T11:24:14.910Z,18.55
2022-12-26T11:25:15.099Z,18.57
2022-12-26T11:26:14.771Z,18.54
2022-12-26T11:27:14.559Z,18.40
2022-12-26T11:28:14.908Z,18.33
2022-12-26T11:29:14.058Z,18.38
2022-12-26T11:30:15.173Z,18.38
2022-12-26T11:31:14.945Z,18.40
2022-12-26T11:32:15.292Z,18.35
2022-12-26T11:33:15.030Z,18.40
2022-12-26T11:34:15.303Z,18.43
2022-12-26T11:35:14.196Z,18.45
2022-12-26T11:36:14.898Z,18.44
2022-12-26T11:37:14.979Z,18.29
2022-12-26T11:38:15.471Z,18.35
2022-12-26T11:39:16.058Z,18.40
2022-12-26T11:40:16.062Z,18.43
2022-12-26T11:41:34.984Z,18.41
2022-12-26T11:42:15.630Z,18.37
2022-12-26T11:43:15.513Z,18.35
2022-12-26T11:44:16.102Z,18.39
2022-12-26T11:45:16.150Z,18.39
2022-12-26T11:46:15.896Z,18.38
2022-12-26T11:47:15.085Z,18.34
2022-12-26T11:48:15.741Z,18.28
2022-12-26T11:49:15.977Z,18.29
2022-12-26T11:50:16.349Z,18.36
2022-12-26T11:51:35.091Z,18.36
2022-12-26T11:52:15.485Z,18.33
2022-12-26T11:53:15.621Z,18.27
2022-12-26T11:54:15.868Z,18.29
2022-12-26T11:55:16.805Z,18.24
2022-12-26T11:56:14.345Z,18.19
2022-12-26T11:57:17.264Z,18.21
2022-12-26T11:58:15.938Z,18.22
2022-12-26T12:00:15.946Z,18.20
2022-12-26T12:01:16.005Z,18.21
2022-12-26T12:02:16.571Z,18.29
2022-12-26T12:03:15.751Z,18.39
2022-12-26T12:04:14.795Z,18.42
2022-12-26T12:05:15.042Z,18.43
2022-12-26T12:06:15.424Z,18.40
2022-12-26T12:07:16.158Z,18.40
2022-12-26T12:08:16.520Z,18.32
2022-12-26T12:09:15.359Z,18.28
2022-12-26T12:10:15.691Z,18.23
2022-12-26T12:11:15.311Z,18.23
2022-12-26T12:12:16.374Z,18.18
2022-12-26T12:13:15.756Z,18.13
2022-12-26T12:14:15.359Z,18.06
2022-12-26T12:16:15.928Z,18.01
2022-12-26T12:17:15.435Z,18.05
2022-12-26T12:18:16.107Z,18.02
2022-12-26T12:19:15.267Z,18.06
2022-12-26T12:20:14.972Z,18.01
2022-12-26T12:21:14.647Z,18.00
2022-12-26T12:22:15.146Z,18.03
2022-12-26T12:23:15.065Z,17.99
2022-12-26T12:24:16.349Z,17.99
2022-12-26T12:25:15.891Z,18.04
2022-12-26T12:26:15.879Z,18.10
2022-12-26T12:27:15.363Z,18.04
2022-12-26T12:28:15.586Z,17.95
2022-12-26T12:29:15.795Z,17.95
2022-12-26T12:30:16.013Z,18.01
2022-12-26T12:31:15.518Z,17.96
2022-12-26T12:32:16.086Z,17.92
2022-12-26T12:33:15.401Z,18
2022-12-26T12:34:16.504Z,18.01
2022-12-26T12:35:15.499Z,18.02
2022-12-26T12:36:14.976Z,18.05
2022-12-26T12:37:15.222Z,18.05
2022-12-26T12:38:16.313Z,18.03
2022-12-26T12:39:16.157Z,18.03
2022-12-26T12:40:16.533Z,18.04
2022-12-26T12:41:15.695Z,18.04
2022-12-26T12:42:15.555Z,18.03
2022-12-26T12:43:16.997Z,18.04
2022-12-26T12:44:15.953Z,17.99
2022-12-26T12:45:16.672Z,17.99
2022-12-26T12:46:15.488Z,18.05
2022-12-26T12:47:15.873Z,18.07
2022-12-26T12:48:16.161Z,18.13
2022-12-26T12:49:16.868Z,18.13
2022-12-26T12:50:15.328Z,18.10
2022-12-26T12:51:14.509Z,18.15
2022-12-26T12:52:15.515Z,18.14
2022-12-26T12:53:15.726Z,18.15
2022-12-26T12:54:15.139Z,18.12
2022-12-26T12:55:15.463Z,18.14